Date,TemperatureHighF,TemperatureAvgF,TemperatureLowF,DewpointHighF,DewpointAvgF,DewpointLowF,HumidityHigh,HumidityAvg,HumidityLow,PressureMaxIn,PressureMinIn,WindSpeedMaxMPH,WindSpeedAvgMPH,GustSpeedMaxMPH,PrecipitationSumIn
2013-3-1,40.5,22.7,32.1,31.8,-20.7,-99.9,79,45,67,29.83,29.64,7,-514,13,0.00
2013-3-2,35.0,18.9,27.4,25.8,-25.6,-99.9,77,43,66,29.83,29.75,7,-584,12,0.00
2013-3-3,34.3,18.4,25.5,23.0,-25.8,-99.9,71,41,60,29.83,29.74,9,-537,20,0.00
2013-3-4,38.1,21.0,26.2,24.1,-22.9,-99.9,73,39,53,29.98,29.82,9,-466,22,0.00
2013-3-5,45.1,24.3,28.9,29.8,-18.4,-99.9,76,41,50,30.06,29.97,6,-481,9,0.00
2013-3-6,37.3,18.8,34.4,35.5,-32.0,-99.9,94,43,71,30.01,29.89,0,-999,0,0.01
2013-3-7,41.9,22.1,31.1,32.1,-22.1,-99.9,90,45,58,30.14,30.00,9,-480,14,0.00
2013-3-8,40.5,24.0,27.2,31.7,-10.5,-99.9,93,55,69,30.27,30.07,10,-684,14,0.03
2013-3-9,56.9,40.9,28.1,34.3,25.8,21.5,77,57,30,30.34,30.25,4,-448,9,0.00
2013-3-10,54.8,40.5,26.3,36.4,29.3,22.4,86,66,40,30.38,30.27,5,-450,12,0.00
2013-3-11,53.3,43.0,33.0,47.1,38.6,29.8,97,85,58,30.33,30.06,7,-581,10,0.00
2013-3-12,55.6,49.9,40.9,55.0,47.5,36.4,98,92,81,30.05,29.68,6,-751,15,1.58
2013-3-13,48.2,39.1,31.9,36.6,30.4,22.5,91,72,47,29.92,29.82,12,-445,16,0.00
2013-3-14,39.0,31.0,25.3,21.9,15.6,10.2,71,54,35,30.01,29.89,13,-512,24,0.00
2013-3-15,42.4,34.1,24.2,31.7,22.7,13.9,71,63,53,30.02,29.74,8,-458,16,0.00
2013-3-16,38.0,31.3,27.6,29.0,25.2,20.6,92,79,62,29.95,29.80,0,-657,0,0.11
2013-3-17,33.9,29.2,23.7,27.4,20.8,16.4,92,72,56,30.34,29.95,6,-524,14,0.00
2013-3-18,31.9,26.9,21.3,25.3,19.1,12.8,93,73,55,30.42,30.01,0,-999,0,0.44
2013-3-19,43.4,33.6,27.2,35.7,29.5,18.8,96,86,55,30.01,29.72,8,-534,14,0.18
2013-3-20,41.4,33.2,27.3,25.8,21.8,18.5,74,63,48,29.92,29.81,10,-434,14,0.00
2013-3-21,36.8,29.7,25.7,24.8,18.0,13.1,77,62,46,29.87,29.67,7,-459,10,0.00
2013-3-22,37.6,30.6,23.3,25.0,20.3,13.3,78,66,53,29.93,29.76,8,-445,16,0.00
2013-3-23,42.0,34.7,29.3,26.1,22.0,20.1,71,60,46,29.98,29.89,11,-457,18,0.00
2013-3-24,44.8,36.4,27.7,27.3,23.3,18.8,71,59,46,29.99,29.72,6,-454,12,0.00
2013-3-25,39.1,35.0,31.3,33.9,28.5,24.7,93,77,64,29.73,29.50,0,-999,0,0.04
2013-3-26,50.2,39.2,31.6,34.5,30.3,27.3,90,72,44,29.91,29.64,17,-451,17,0.00
2013-3-27,49.8,38.8,29.2,32.8,28.4,22.9,85,67,41,30.04,29.91,7,-473,24,0.00
2013-3-28,45.8,39.5,32.0,33.8,30.3,27.3,86,70,56,30.16,30.00,8,-472,16,0.00
2013-3-29,51.6,42.1,33.9,34.2,30.3,27.5,82,64,45,30.18,30.11,7,-463,14,0.00
2013-3-30,57.1,43.0,29.3,32.4,27.4,22.6,89,58,28,30.21,30.09,6,-464,11,0.00
2013-3-31,56.0,42.0,30.3,41.5,32.3,21.6,97,70,44,30.14,29.72,7,-614,13,0.19